createdAt,value
2023-04-19T00:01:16.711Z,97993.88955442647
2023-04-19T00:04:17.716Z,97996.77340941362
2023-04-19T00:07:18.717Z,97995.82189638808
2023-04-19T00:11:16.901Z,97997.24454418354
2023-04-19T00:14:17.298Z,97992.96972789052
2023-04-19T00:17:17.115Z,97989.525006212
2023-04-19T00:21:17.322Z,97993.01058043931
2023-04-19T00:24:17.436Z,97988.76278532021
2023-04-19T00:27:16.617Z,97986.87782262114
2023-04-19T00:31:16.386Z,97987.21672638081
2023-04-19T00:34:17.072Z,97988.31568793353
2023-04-19T00:37:16.947Z,97992.85561317058
2023-04-19T00:41:16.523Z,97979.10586274607
2023-04-19T00:44:17.023Z,97987.73207632355
2023-04-19T00:47:16.923Z,97979.72262259362
2023-04-19T00:51:16.661Z,97978.97215562854
2023-04-19T00:54:18.410Z,97976.75616156893
2023-04-19T00:57:17.737Z,97965.47534536489
2023-04-19T01:01:15.975Z,97971.11054629879
2023-04-19T01:04:17.025Z,97966.91042568201
2023-04-19T01:07:17.116Z,97970.81976293398
2023-04-19T01:11:16.221Z,97967.27319273545
2023-04-19T01:14:17.123Z,97971.52722106598
2023-04-19T01:17:17.897Z,97968.6391200525
2023-04-19T01:21:17.487Z,97966.98782267363
2023-04-19T01:24:16.735Z,97972.37268764903
2023-04-19T01:27:17.683Z,97972.31367280708
2023-04-19T01:31:15.943Z,97974.18252951972
2023-04-19T01:34:16.632Z,97971.02244586396
2023-04-19T01:37:16.331Z,97974.56310909458
2023-04-19T01:41:16.844Z,97971.93687452149
2023-04-19T01:44:17.234Z,97972.2020787088
2023-04-19T01:47:17.040Z,97973.78097090602
2023-04-19T01:51:17.706Z,97971.34193831314
2023-04-19T01:54:17.220Z,97970.48025699158
2023-04-19T01:57:17.047Z,97966.05100995857
2023-04-19T02:01:16.459Z,97975.28562059747
2023-04-19T02:04:19.366Z,97972.59161210814
2023-04-19T02:07:16.703Z,97972.48593628782
2023-04-19T02:11:16.521Z,97977.08588525845
2023-04-19T02:14:17.100Z,97972.36375527932
2023-04-19T02:17:17.073Z,97971.01914309856
2023-04-19T02:21:16.526Z,97968.46972709923
2023-04-19T02:24:17.177Z,97965.39811404647
2023-04-19T02:27:17.464Z,97969.02237367094
2023-04-19T02:31:16.357Z,97963.96843853744
2023-04-19T02:34:16.924Z,97964.2826361825
2023-04-19T02:37:17.706Z,97974.36205577155
2023-04-19T02:41:16.603Z,97973.44375067683
2023-04-19T02:44:16.970Z,97977.59001423435
2023-04-19T02:47:16.804Z,97972.95191447019
2023-04-19T02:51:17.252Z,97977.42842001644
2023-04-19T02:54:18.212Z,97970.13675368058
2023-04-19T02:57:16.850Z,97969.85871610518
2023-04-19T03:01:16.424Z,97968.44526924842
2023-04-19T03:04:17.751Z,97964.66079412196
2023-04-19T03:07:16.716Z,97963.82472689652
2023-04-19T03:11:17.240Z,97960.2571802776
2023-04-19T03:14:16.688Z,97956.5307738514
2023-04-19T03:17:16.668Z,97963.71557118895
2023-04-19T03:21:16.703Z,97960.03992511457
2023-04-19T03:24:18.284Z,97964.90167860569
2023-04-19T03:27:17.027Z,97960.98532078743
2023-04-19T03:31:16.889Z,97964.19034335141
2023-04-19T03:34:17.268Z,97965.821367017
2023-04-19T03:37:16.937Z,97966.2885175445
2023-04-19T03:41:19.820Z,97966.2142995195
2023-04-19T03:44:16.661Z,97971.95672111443
2023-04-19T03:47:16.419Z,97974.54885509291
2023-04-19T03:51:16.705Z,97975.210063714
2023-04-19T04:01:18.751Z,97972.42063714964
2023-04-19T04:04:17.441Z,97972.12988811625
2023-04-19T04:07:17.043Z,97970.5879242536
2023-04-19T04:11:16.933Z,97969.28281403687
2023-04-19T04:14:17.132Z,97971.05892402933
2023-04-19T04:17:17.045Z,97974.33064723734
2023-04-19T04:21:16.336Z,97974.8216197708
2023-04-19T04:24:18.122Z,97978.02032189738
2023-04-19T04:27:20.445Z,97981.86686481282
2023-04-19T04:31:18.417Z,97979.73650590859
2023-04-19T04:34:16.947Z,97978.10181887528
2023-04-19T04:37:18.113Z,97979.3739965479
2023-04-19T04:41:16.818Z,97977.6161516457
2023-04-19T04:44:16.482Z,97985.06566070275
2023-04-19T04:47:17.089Z,97983.90357660427
2023-04-19T04:51:16.033Z,97991.58870372002
2023-04-19T04:54:16.872Z,97987.27897577462
2023-04-19T04:57:16.294Z,97987.05013553135
2023-04-19T05:01:19.858Z,97991.48234371383
2023-04-19T05:04:18.369Z,97995.81088189779
2023-04-19T05:07:16.973Z,97995.74974472626
2023-04-19T05:11:16.743Z,98001.51370726815
2023-04-19T05:14:16.712Z,97996.26784079576
2023-04-19T05:17:16.538Z,97997.70207569834
2023-04-19T05:21:16.455Z,97998.71525831947
2023-04-19T05:24:16.997Z,97994.48314099139
2023-04-19T05:27:16.607Z,97999.32970057131
2023-04-19T05:31:16.627Z,97997.24880650117
2023-04-19T05:34:18.042Z,97997.50462833329
2023-04-19T05:37:16.643Z,97998.32568492294
2023-04-19T05:41:15.952Z,98001.4500335412
2023-04-19T05:44:16.441Z,98002.39049152865
2023-04-19T05:47:17.742Z,98001.14657191557
2023-04-19T05:51:18.396Z,98001.01971683592
2023-04-19T05:54:17.732Z,98000.19047576495
2023-04-19T05:57:17.042Z,97994.89795874502
2023-04-19T06:01:16.960Z,98003.68074136753
2023-04-19T06:04:17.444Z,97997.6283379001
2023-04-19T06:07:30.969Z,97995.49508015356
2023-04-19T06:11:26.459Z,97995.73648631692
2023-04-19T06:14:17.761Z,97999.12148389996
2023-04-19T06:17:17.105Z,97995.07147334484
2023-04-19T06:21:16.606Z,97993.50944398232
2023-04-19T06:24:17.277Z,97994.58314094658
2023-04-19T06:27:16.800Z,97997.2386718232
2023-04-19T06:31:16.237Z,98000.90018103487
2023-04-19T06:34:17.140Z,97998.15571840358
2023-04-19T06:37:16.416Z,97998.0571180121
2023-04-19T06:41:16.400Z,98001.02934165536
2023-04-19T06:44:17.495Z,98007.52980939847
2023-04-19T06:47:17.326Z,98008.23767038056
2023-04-19T06:51:16.614Z,98005.29024406587
2023-04-19T06:54:17.525Z,98001.27329991237
2023-04-19T06:57:17.859Z,98003.27240221224
2023-04-19T07:01:16.313Z,98005.69115202266
2023-04-19T07:04:17.307Z,98006.9946488143
2023-04-19T07:07:16.937Z,98010.72906943902
2023-04-19T07:11:16.039Z,98005.11763277138
2023-04-19T07:14:17.582Z,98007.65798159788
2023-04-19T07:17:17.821Z,98008.5589233189
2023-04-19T07:21:16.166Z,98009.27545908632
2023-04-19T07:24:16.895Z,98007.86212272405
2023-04-19T07:27:16.857Z,98005.65433009749
2023-04-19T07:31:18.126Z,97998.32468910456
2023-04-19T07:34:16.835Z,97995.73744735052
2023-04-19T07:37:16.743Z,97998.1811619669
2023-04-19T07:41:16.900Z,97993.58123406449
2023-04-19T07:44:17.323Z,97995.12461865603
2023-04-19T07:47:17.172Z,97993.51249481409
2023-04-19T07:51:17.334Z,97999.26386188841
2023-04-19T07:54:18.505Z,97994.01734931528
2023-04-19T07:57:17.303Z,98001.23368675206
2023-04-19T08:01:17.703Z,97991.87426530632
2023-04-19T08:04:19.482Z,97989.3546970575
2023-04-19T08:07:17.077Z,97985.75535371611
2023-04-19T08:11:16.028Z,97979.45519597191
2023-04-19T08:14:28.461Z,97982.90596176578
2023-04-19T08:17:26.708Z,97981.6200823774
2023-04-19T08:21:16.400Z,97982.61359297803
2023-04-19T08:24:17.125Z,97983.0800333969
2023-04-19T08:27:16.985Z,97987.51648608067
2023-04-19T08:31:17.582Z,97983.82324645256
2023-04-19T08:34:17.830Z,97991.38203846046
2023-04-19T08:37:17.776Z,97983.73423264649
2023-04-19T08:41:18.844Z,97978.13744677191
2023-04-19T08:44:32.603Z,97976.93608255731
2023-04-19T08:47:27.281Z,97975.89843790125
2023-04-19T08:51:17.996Z,97973.64949771806
2023-04-19T08:54:18.963Z,97975.73993179985
2023-04-19T08:57:16.534Z,97974.2954573854
2023-04-19T09:01:26.820Z,97962.73645120465
2023-04-19T09:04:35.716Z,97958.68554844671
2023-04-19T09:07:25.450Z,97959.05873428495
2023-04-19T09:11:16.823Z,97953.83939483785
2023-04-19T09:14:19.400Z,97949.66816995764
2023-04-19T09:17:17.505Z,97947.54910104549
2023-04-19T09:21:27.734Z,97950.78011757862
2023-04-19T09:24:16.983Z,97949.11675096431
2023-04-19T09:27:25.954Z,97949.11382016816
2023-04-19T09:31:42.701Z,97941.72068156721
2023-04-19T09:34:18.150Z,97946.76327780576
2023-04-19T09:41:17.563Z,97943.56596300537
2023-04-19T09:47:26.195Z,97940.45402553206
2023-04-19T09:51:16.316Z,97937.4361952132
2023-04-19T09:54:17.766Z,97940.35486318386
2023-04-19T09:57:16.495Z,97935.45919934819
2023-04-19T10:11:17.095Z,97931.92807586961
2023-04-19T10:14:19.598Z,97934.19857486735
2023-04-19T10:17:16.777Z,97935.64611224494
2023-04-19T10:21:18.395Z,97927.91261482403
2023-04-19T10:24:19.048Z,97928.61451580942
2023-04-19T10:27:24.686Z,97926.48662931041
2023-04-19T10:31:19.527Z,97920.86468789597
2023-04-19T10:34:36.966Z,97920.16871442476
2023-04-19T10:37:20.610Z,97916.18297423433
2023-04-19T10:41:18.718Z,97916.16125096768
2023-04-19T10:44:16.553Z,97915.14943114901
2023-04-19T10:47:40.465Z,97915.27157467972
2023-04-19T10:51:17.546Z,97910.37349423344
2023-04-19T10:54:28.441Z,97907.68339307011
2023-04-19T10:57:16.366Z,97907.13781695755
2023-04-19T11:01:32.464Z,97902.55468074392
2023-04-19T11:04:18.602Z,97905.05836778972
2023-04-19T11:07:19.009Z,97894.18997058558
2023-04-19T11:11:16.787Z,97890.80580640491
2023-04-19T11:14:19.468Z,97886.39964401383
2023-04-19T11:17:19.537Z,97881.07255777421
2023-04-19T11:21:17.793Z,97885.17260213423
2023-04-19T11:24:18.828Z,97871.39583814779
2023-04-19T11:27:16.812Z,97865.61555901155
2023-04-19T11:31:19.196Z,97858.39108055993
2023-04-19T11:34:16.507Z,97862.65691386836
2023-04-19T11:37:16.383Z,97860.56916384096
2023-04-19T11:41:16.238Z,97860.40199802487
2023-04-19T11:44:18.267Z,97858.73499666565
2023-04-19T11:47:17.428Z,97852.890083778
2023-04-19T11:51:16.728Z,97855.60294250898
2023-04-19T11:54:18.336Z,97854.21277393273
2023-04-19T11:57:27.256Z,97851.8990920105
2023-04-19T12:01:18.923Z,97847.01432139636
2023-04-19T12:04:16.828Z,97845.53346510026
2023-04-19T12:07:16.408Z,97849.06111565442
2023-04-19T12:11:18.048Z,97847.54551586589
2023-04-19T12:14:18.255Z,97840.48201557623
2023-04-19T12:17:16.933Z,97836.90709769275
2023-04-19T12:21:25.873Z,97825.11418159425
2023-04-19T12:24:17.469Z,97829.84016398746
2023-04-19T12:27:17.910Z,97825.77659064787
2023-04-19T12:31:16.593Z,97826.8050235031
2023-04-19T12:34:16.076Z,97825.37653542141
2023-04-19T12:37:15.956Z,97816.42852339096
2023-04-19T12:41:16.496Z,97817.3391636505
2023-04-19T12:44:17.056Z,97813.6693277357
2023-04-19T12:47:18.197Z,97808.57985357866
2023-04-19T12:51:15.978Z,97808.04937446132
2023-04-19T12:54:16.827Z,97797.08368052567
2023-04-19T12:57:16.247Z,97790.67357660964
2023-04-19T13:01:16.718Z,97783.35236746164
2023-04-19T13:04:17.087Z,97781.92441332007
2023-04-19T13:07:16.550Z,97779.95542067252
2023-04-19T13:11:16.232Z,97773.39429683844
2023-04-19T13:14:16.390Z,97778.87755279055
2023-04-19T13:17:16.510Z,97770.42647886345
2023-04-19T13:21:16.402Z,97772.85262082485
2023-04-19T13:24:16.771Z,97763.8751055205
2023-04-19T13:27:16.998Z,97766.9209104443
2023-04-19T13:31:15.996Z,97762.79798904984
2023-04-19T13:34:16.624Z,97769.24066800589
2023-04-19T13:37:16.328Z,97758.81244745974
2023-04-19T13:41:15.723Z,97752.43575870417
2023-04-19T13:44:16.366Z,97747.55523630408
2023-04-19T13:47:16.177Z,97741.24802196638
2023-04-19T13:51:16.024Z,97738.98037083755
2023-04-19T13:54:19.010Z,97736.24025206522
2023-04-19T13:57:16.396Z,97736.08923102389
2023-04-19T14:01:16.260Z,97735.9624929976
2023-04-19T14:04:17.153Z,97732.81918947141
2023-04-19T14:07:17.065Z,97734.9755871958
2023-04-19T14:11:16.133Z,97737.89433425636
2023-04-19T14:14:16.990Z,97727.94556105365
2023-04-19T14:17:17.095Z,97730.4617761671
2023-04-19T14:21:16.653Z,97737.8157826025
2023-04-19T14:24:17.435Z,97739.93089513612
2023-04-19T14:27:17.125Z,97738.2684134426
2023-04-19T14:31:16.778Z,97724.26356622324
2023-04-19T14:34:17.092Z,97732.05833990833
2023-04-19T14:37:17.401Z,97730.41054937038
2023-04-19T14:41:16.015Z,97729.97325315254
2023-04-19T14:44:16.386Z,97728.84679819684
2023-04-19T14:47:16.744Z,97732.69738086307
2023-04-19T14:51:16.787Z,97724.83792338862
2023-04-19T14:54:17.031Z,97725.413677936
2023-04-19T14:57:17.156Z,97733.65636670627
2023-04-19T15:01:16.971Z,97742.05161818623
2023-04-19T15:04:17.166Z,97737.84030724612
2023-04-19T15:07:16.984Z,97741.80441675565
2023-04-19T15:11:16.252Z,97744.40666373496
2023-04-19T15:14:16.255Z,97740.1316304698
2023-04-19T15:17:16.822Z,97742.78154763141
2023-04-19T15:21:18.640Z,97741.85824937724
2023-04-19T15:24:16.182Z,97734.98378211926
2023-04-19T15:27:16.101Z,97740.25660583071
2023-04-19T15:31:16.855Z,97747.18674989896
2023-04-19T15:34:16.983Z,97741.71164073254
2023-04-19T15:37:16.999Z,97754.93157200582
2023-04-19T15:41:16.370Z,97759.77690828708
2023-04-19T15:44:16.407Z,97758.8040346454
2023-04-19T15:47:16.263Z,97746.97164206905
2023-04-19T15:51:16.460Z,97749.54943073729
2023-04-19T15:54:16.730Z,97747.91397192652
2023-04-19T15:57:16.827Z,97751.92054462942
2023-04-19T16:01:19.058Z,97757.40093285165
2023-04-19T16:04:17.031Z,97761.62594046607
2023-04-19T16:07:16.822Z,97756.32964563831
2023-04-19T16:11:16.623Z,97751.5182690848
2023-04-19T16:14:16.914Z,97748.0869919835
2023-04-19T16:17:16.932Z,97744.99739055107
2023-04-19T16:21:16.117Z,97755.79026457386
2023-04-19T16:24:16.570Z,97747.76714638402
2023-04-19T16:27:16.408Z,97746.3714443208
2023-04-19T16:31:15.959Z,97746.59186132257
2023-04-19T16:34:17.097Z,97749.5263744899
2023-04-19T16:37:16.372Z,97745.34447270403
2023-04-19T16:41:16.398Z,97745.50109411227
2023-04-19T16:44:16.529Z,97743.44860207668
2023-04-19T16:47:16.878Z,97757.2989442792
2023-04-19T16:51:16.863Z,97753.39086479001
2023-04-19T16:54:17.058Z,97754.20595556746
2023-04-19T16:57:17.273Z,97750.39229686015
2023-04-19T17:01:16.814Z,97758.14195448413
2023-04-19T17:04:17.942Z,97757.59364186529
2023-04-19T17:07:16.990Z,97756.57618015866
2023-04-19T17:11:17.101Z,97755.4749336116
2023-04-19T17:14:17.137Z,97757.33597896365
2023-04-19T17:17:19.279Z,97758.04545092088
2023-04-19T17:21:16.288Z,97770.36784034864
2023-04-19T17:24:16.386Z,97771.14343292172
2023-04-19T17:27:16.290Z,97771.54998475786
2023-04-19T17:31:16.579Z,97768.87871211545
2023-04-19T17:34:17.129Z,97766.90620039836
2023-04-19T17:37:16.968Z,97764.90576305956
2023-04-19T17:41:16.573Z,97774.03471630448
2023-04-19T17:44:16.782Z,97779.06562147042
2023-04-19T17:47:18.656Z,97777.1282422001
2023-04-19T17:51:16.305Z,97783.5642701728
2023-04-19T17:54:17.449Z,97788.76890214156
2023-04-19T17:57:16.713Z,97787.70269455048
2023-04-19T18:01:16.390Z,97792.2013385402
2023-04-19T18:04:18.384Z,97796.19360682485
2023-04-19T18:07:16.162Z,97802.19517787242
2023-04-19T18:11:18.301Z,97802.88616658095
2023-04-19T18:14:16.147Z,97805.30904656507
2023-04-19T18:17:16.191Z,97803.46060655608
2023-04-19T18:21:16.479Z,97806.6274143177
2023-04-19T18:24:16.616Z,97811.7260688044
2023-04-19T18:27:16.829Z,97809.0120066425
2023-04-19T18:31:15.927Z,97814.84346668667
2023-04-19T18:34:16.068Z,97817.24287088994
2023-04-19T18:37:16.855Z,97820.80476680933
2023-04-19T18:41:16.272Z,97826.56321202405
2023-04-19T18:44:35.864Z,97828.30189636088
2023-04-19T18:47:16.645Z,97835.57776065478
2023-04-19T18:51:16.246Z,97843.52527380546
2023-04-19T18:54:16.640Z,97848.91100333101
2023-04-19T18:57:22.714Z,97855.9038639438
2023-04-19T19:01:16.589Z,97867.0553999127
2023-04-19T19:04:37.174Z,97868.02137811038
2023-04-19T19:07:34.321Z,97874.69642928029
2023-04-19T19:11:47.103Z,97876.08965135635
2023-04-19T19:14:17.175Z,97880.76934846994
2023-04-19T19:17:17.968Z,97886.89287508436
2023-04-19T19:21:17.287Z,97894.59228716129
2023-04-19T19:24:17.448Z,97894.92522498782
2023-04-19T19:27:20.211Z,97896.5073186179
2023-04-19T19:31:16.667Z,97905.43271354519
2023-04-19T19:34:25.964Z,97909.65036827025
2023-04-19T19:37:17.592Z,97911.32819241086
2023-04-19T19:44:16.793Z,97912.16656768549
2023-04-19T19:47:18.371Z,97913.42183682794
2023-04-19T19:51:41.598Z,97921.99302308996
2023-04-19T19:54:18.987Z,97920.79137766294
2023-04-19T20:01:17.891Z,97914.95324558679
2023-04-19T20:04:17.734Z,97918.32250110373
2023-04-19T20:11:16.234Z,97921.2786613773
2023-04-19T20:14:17.049Z,97918.93391889405
2023-04-19T20:17:16.809Z,97922.83618022717
2023-04-19T20:21:17.070Z,97915.63321387957
2023-04-19T20:24:16.518Z,97921.1147236585
2023-04-19T20:27:16.408Z,97920.35849392213
2023-04-19T20:31:17.096Z,97923.37851000795
2023-04-19T20:34:16.951Z,97922.32852489507
2023-04-19T20:37:18.750Z,97925.19618307218
2023-04-19T20:41:17.247Z,97917.44757295119
2023-04-19T20:44:17.216Z,97918.45655681749
2023-04-19T20:47:16.827Z,97918.64285897628
2023-04-19T20:51:16.998Z,97921.83813953266
2023-04-19T20:54:18.698Z,97920.12033044345
2023-04-19T20:57:17.217Z,97924.1256573215
2023-04-19T21:01:18.408Z,97929.06457459407
2023-04-19T21:04:17.745Z,97931.2927885289
2023-04-19T21:07:18.558Z,97928.49787232582
2023-04-19T21:11:17.922Z,97926.95577986747
2023-04-19T21:14:17.632Z,97927.57304364783
2023-04-19T21:17:18.905Z,97931.0781326115
2023-04-19T21:21:17.649Z,97933.95940067167
2023-04-19T21:24:17.521Z,97935.78790878176
2023-04-19T21:27:17.140Z,97936.00381690514
2023-04-19T21:31:16.148Z,97934.53756761637
2023-04-19T21:34:16.315Z,97935.41150100053
2023-04-19T21:37:17.512Z,97934.88632752413
2023-04-19T21:41:16.322Z,97929.73942921334
2023-04-19T21:44:16.502Z,97929.74209676425
2023-04-19T21:47:16.396Z,97931.53846128182
2023-04-19T21:51:16.285Z,97932.32715051304
2023-04-19T21:54:26.661Z,97934.76227391795
2023-04-19T21:57:17.696Z,97934.26743005513
2023-04-19T22:01:17.174Z,97928.40641206746
2023-04-19T22:04:17.080Z,97928.26656813567
2023-04-19T22:07:18.870Z,97927.63747688156
2023-04-19T22:11:15.855Z,97928.49480071903
2023-04-19T22:14:17.723Z,97935.11517733465
2023-04-19T22:17:19.128Z,97923.85055319966
2023-04-19T22:21:16.147Z,97930.86174922051
2023-04-19T22:24:16.585Z,97922.63336236202
2023-04-19T22:27:16.519Z,97921.97735289799
2023-04-19T22:31:16.364Z,97927.62908119636
2023-04-19T22:34:16.716Z,97923.72254832771
2023-04-19T22:37:16.809Z,97919.21905700471
2023-04-19T22:41:16.128Z,97919.39991278533
2023-04-19T22:44:16.193Z,97917.39654158251
2023-04-19T22:47:16.596Z,97912.30390029939
2023-04-19T23:01:16.141Z,97906.97870002744
2023-04-19T23:04:16.728Z,97902.1207138263
2023-04-19T23:07:16.637Z,97902.16279302655
2023-04-19T23:11:16.770Z,97897.69117655596
2023-04-19T23:14:18.530Z,97896.75693352307
2023-04-19T23:17:17.289Z,97892.90815244078
2023-04-19T23:21:15.941Z,97894.70698067662
2023-04-19T23:24:16.952Z,97891.37182565275
2023-04-19T23:27:16.564Z,97891.8831878751
2023-04-19T23:31:16.148Z,97888.0244378793
2023-04-19T23:34:16.738Z,97882.88065817149
2023-04-19T23:37:16.319Z,97872.67709103179
2023-04-19T23:41:16.087Z,97873.2295907474
2023-04-19T23:44:16.447Z,97870.41909427985
2023-04-19T23:47:16.527Z,97866.54371061565
2023-04-19T23:51:16.350Z,97860.52599717608
2023-04-19T23:54:21.028Z,97855.33259113351
2023-04-19T23:57:18.422Z,97851.90262375915
